Time;durP1;ratioP1;P1;durP2;ratioP2;P2;SDS_P1;SDS_P2;PMS_P1;PMS_P2;Temp;Humidity;BMP_temperature;BMP_pressure;BME280_temperature;BME280_humidity;BME280_pressure;Samples;Min_cycle;Max_cycle;Signal;HPM_P1;HPM_P2
2022/10/30 00:00:26;;;;;;;19.02;8.63;;;;;;;16.35;73.20;101540.25;5050398;28;20033;-53
2022/10/30 00:02:54;;;;;;;17.92;7.82;;;;;;;16.26;73.62;101549.00;5032007;28;20041;-54
2022/10/30 00:05:20;;;;;;;18.85;8.25;;;;;;;16.32;73.40;101543.16;5036679;28;20159;-53
2022/10/30 00:07:49;;;;;;;18.55;8.68;;;;;;;16.13;74.04;101551.75;5031990;28;20100;-53
2022/10/30 00:10:15;;;;;;;17.40;9.27;;;;;;;16.08;74.02;101543.19;5034328;28;20364;-53
2022/10/30 00:12:40;;;;;;;17.17;8.57;;;;;;;16.07;74.35;101542.34;5043836;28;20028;-53
2022/10/30 00:15:06;;;;;;;17.52;8.55;;;;;;;16.11;74.27;101546.50;5042692;28;20065;-53
2022/10/30 00:17:32;;;;;;;17.05;8.93;;;;;;;16.12;74.42;101542.00;5039995;28;20090;-53
2022/10/30 00:19:58;;;;;;;17.25;8.55;;;;;;;15.96;74.80;101536.91;5045076;28;20098;-54
2022/10/30 00:22:24;;;;;;;16.58;8.55;;;;;;;16.00;74.50;101545.59;5048077;28;20036;-51
2022/10/30 00:24:49;;;;;;;21.00;8.10;;;;;;;15.98;74.92;101544.88;5048337;28;20441;-53
2022/10/30 00:27:15;;;;;;;20.55;8.23;;;;;;;16.04;74.43;101541.72;5036590;28;20484;-52
2022/10/30 00:29:40;;;;;;;18.58;8.40;;;;;;;16.03;74.42;101535.50;5033242;28;20384;-53
2022/10/30 00:32:06;;;;;;;19.08;8.30;;;;;;;15.98;75.11;101544.88;5045433;28;20484;-53
2022/10/30 00:34:31;;;;;;;21.60;8.38;;;;;;;15.88;75.17;101539.31;5048588;28;20033;-53
2022/10/30 00:36:59;;;;;;;16.88;8.20;;;;;;;15.92;74.67;101534.59;5045157;28;20036;-53
2022/10/30 00:39:26;;;;;;;19.13;8.05;;;;;;;15.92;74.87;101526.56;5030303;28;20038;-54
2022/10/30 00:41:52;;;;;;;18.77;8.30;;;;;;;15.83;75.72;101530.78;5045531;28;20037;-53
2022/10/30 00:44:36;;;;;;;16.30;8.32;;;;;;;15.81;75.48;101532.72;5028619;28;20033;-53
2022/10/30 00:47:11;;;;;;;16.52;8.45;;;;;;;15.78;75.46;101531.09;5035824;28;20100;-54
2022/10/30 00:49:49;;;;;;;19.17;9.13;;;;;;;15.77;75.37;101531.22;5039262;28;20029;-53
2022/10/30 00:52:15;;;;;;;16.60;8.02;;;;;;;15.76;75.78;101529.50;5049950;28;20039;-54
2022/10/30 00:54:43;;;;;;;16.10;7.82;;;;;;;15.80;75.44;101531.00;5035950;28;20025;-52
2022/10/30 00:57:09;;;;;;;19.48;8.55;;;;;;;15.61;76.25;101529.63;5048091;28;20049;-53
2022/10/30 00:59:35;;;;;;;15.35;8.57;;;;;;;15.60;76.20;101538.66;5047903;28;20520;-54
2022/10/30 01:02:02;;;;;;;18.23;7.95;;;;;;;15.55;76.65;101537.28;5051588;28;20024;-53
2022/10/30 01:04:30;;;;;;;17.17;7.85;;;;;;;15.38;77.21;101523.28;5048616;28;20029;-53
2022/10/30 01:07:04;;;;;;;16.67;8.30;;;;;;;15.57;76.65;101532.66;5031588;28;20045;-54
2022/10/30 01:09:33;;;;;;;19.10;8.52;;;;;;;15.57;76.32;101528.16;5033698;28;20033;-53
2022/10/30 01:11:58;;;;;;;19.17;9.38;;;;;;;15.51;76.99;101535.78;5044535;28;20638;-53
2022/10/30 01:14:26;;;;;;;14.27;8.00;;;;;;;15.36;77.47;101538.63;5033094;28;20036;-54
2022/10/30 01:17:19;;;;;;;19.50;8.45;;;;;;;15.40;77.50;101534.72;5053457;28;20098;-53
2022/10/30 01:19:57;;;;;;;16.42;8.43;;;;;;;15.32;77.73;101541.63;5046845;28;20396;-52
2022/10/30 01:22:37;;;;;;;15.95;8.13;;;;;;;15.38;77.69;101541.16;5053347;28;20464;-53
2022/10/30 01:25:02;;;;;;;18.92;9.20;;;;;;;15.40;77.73;101537.41;5052703;28;20032;-54
2022/10/30 01:27:40;;;;;;;16.30;8.38;;;;;;;15.34;78.15;101540.53;5044916;28;20122;-53
2022/10/30 01:30:42;;;;;;;21.02;8.02;;;;;;;15.31;77.87;101537.22;5053034;28;20037;-52
2022/10/30 01:33:26;;;;;;;17.23;8.18;;;;;;;15.22;78.25;101546.78;5053475;28;20029;-54
2022/10/30 01:36:01;;;;;;;15.73;7.70;;;;;;;15.28;78.16;101540.97;5052238;28;20403;-52
2022/10/30 01:38:46;;;;;;;18.17;7.45;;;;;;;15.30;78.12;101543.56;5050782;28;20033;-54
2022/10/30 01:41:14;;;;;;;23.17;9.20;;;;;;;15.27;78.41;101543.78;5052198;28;20108;-53
2022/10/30 01:43:41;;;;;;;16.75;8.32;;;;;;;15.31;78.11;101547.94;5023192;28;20034;-53
2022/10/30 01:46:19;;;;;;;16.98;8.60;;;;;;;15.25;78.36;101546.56;5038920;28;20033;-52
2022/10/30 01:48:54;;;;;;;19.35;8.00;;;;;;;15.14;78.78;101541.97;5049217;28;20134;-52
2022/10/30 01:51:34;;;;;;;20.88;9.00;;;;;;;15.19;78.45;101550.53;5042034;28;20663;-54
2022/10/30 01:54:30;;;;;;;19.80;8.98;;;;;;;15.18;78.74;101548.84;5034519;28;20025;-54
2022/10/30 01:57:15;;;;;;;15.65;8.75;;;;;;;14.97;79.67;101548.53;5048068;28;20472;-54
2022/10/30 01:59:50;;;;;;;21.75;8.88;;;;;;;15.12;78.88;101554.63;5036607;28;20083;-54
2022/10/30 02:02:16;;;;;;;17.70;8.95;;;;;;;15.10;79.19;101556.56;5054780;28;20024;-54
2022/10/30 02:04:42;;;;;;;20.25;9.32;;;;;;;14.99;79.42;101557.28;5046370;28;20021;-53
2022/10/30 02:07:10;;;;;;;15.63;8.57;;;;;;;15.03;79.66;101560.66;5046563;28;20095;-54
2022/10/30 02:09:38;;;;;;;15.38;7.85;;;;;;;15.09;79.33;101562.00;5050061;28;20033;-52
2022/10/30 02:12:04;;;;;;;19.73;8.60;;;;;;;15.00;79.43;101566.22;5050966;28;20021;-54
2022/10/30 02:14:34;;;;;;;21.95;8.98;;;;;;;14.98;79.76;101552.91;5049869;28;20388;-52
2022/10/30 02:17:03;;;;;;;17.98;8.80;;;;;;;14.84;79.85;101549.50;5048266;28;20037;-53
2022/10/30 02:19:29;;;;;;;18.50;8.38;;;;;;;14.94;79.65;101551.44;5046079;28;20491;-52
2022/10/30 02:21:54;;;;;;;16.17;8.55;;;;;;;14.86;80.31;101553.78;5031957;28;20033;-54
2022/10/30 02:24:19;;;;;;;18.23;8.43;;;;;;;14.79;80.21;101551.63;5044088;28;20387;-54
2022/10/30 02:26:45;;;;;;;19.95;9.10;;;;;;;14.87;80.17;101560.00;5046852;28;20029;-53
2022/10/30 02:29:11;;;;;;;18.88;9.32;;;;;;;14.91;80.23;101565.03;5039160;28;20448;-53
2022/10/30 02:31:39;;;;;;;17.90;8.30;;;;;;;14.85;80.10;101557.41;5045964;28;20052;-53
2022/10/30 02:34:04;;;;;;;18.20;8.50;;;;;;;14.86;80.20;101563.66;5052924;28;20017;-53
2022/10/30 02:36:29;;;;;;;23.05;8.73;;;;;;;14.89;80.45;101563.44;5032415;28;20552;-54
2022/10/30 02:38:58;;;;;;;18.40;9.38;;;;;;;14.92;80.21;101568.56;5042043;28;20505;-53
2022/10/30 02:41:26;;;;;;;17.42;8.80;;;;;;;14.93;80.16;101575.63;5050301;28;20033;-53
2022/10/30 02:43:54;;;;;;;14.77;8.50;;;;;;;14.89;80.00;101568.78;5051285;28;20028;-54
2022/10/30 02:46:22;;;;;;;20.15;9.52;;;;;;;14.86;80.41;101577.88;5043839;28;20032;-53
2022/10/30 02:48:47;;;;;;;18.55;9.43;;;;;;;14.87;80.24;101573.38;5043747;28;20065;-54
2022/10/30 02:51:12;;;;;;;15.70;8.60;;;;;;;14.82;80.54;101573.69;5037115;28;20422;-53
2022/10/30 02:53:38;;;;;;;18.88;9.48;;;;;;;14.83;80.74;101566.53;5050830;28;20044;-53
2022/10/30 02:56:07;;;;;;;18.90;8.70;;;;;;;14.84;80.52;101570.91;5042974;28;20546;-53
2022/10/30 02:58:32;;;;;;;17.10;8.75;;;;;;;14.76;80.63;101568.75;5047431;28;20036;-54
2022/10/30 03:01:05;;;;;;;22.23;8.82;;;;;;;14.78;80.33;101580.22;5050754;28;20687;-53
2022/10/30 03:03:32;;;;;;;18.15;9.02;;;;;;;14.73;80.66;101569.81;5050520;28;20021;-53
2022/10/30 03:06:03;;;;;;;17.73;8.80;;;;;;;14.60;80.94;101566.28;5050687;28;20037;-54
2022/10/30 03:08:29;;;;;;;15.55;8.63;;;;;;;14.63;80.61;101563.41;5050746;28;20044;-53
2022/10/30 03:11:02;;;;;;;25.42;8.77;;;;;;;14.60;81.36;101562.75;5049850;28;20029;-53
2022/10/30 03:13:30;;;;;;;15.13;8.93;;;;;;;14.53;81.63;101560.50;5043487;28;20033;-53
2022/10/30 03:16:00;;;;;;;19.00;8.93;;;;;;;14.59;81.59;101556.56;5006358;28;1139612;-54
2022/10/30 03:18:26;;;;;;;17.55;8.90;;;;;;;14.61;81.61;101565.31;5049749;28;20123;-53
2022/10/30 03:20:58;;;;;;;21.13;9.32;;;;;;;14.52;82.22;101558.78;5036650;28;20429;-53
2022/10/30 03:23:27;;;;;;;17.30;9.15;;;;;;;14.59;81.98;101548.53;5032378;28;20071;-52
2022/10/30 03:25:56;;;;;;;23.97;9.10;;;;;;;14.60;81.79;101555.59;5046577;28;20392;-53
2022/10/30 03:28:22;;;;;;;;;;;;;;;14.71;80.52;101557.53;5053448;28;20304;-53
2022/10/30 03:30:49;;;;;;;16.95;9.10;;;;;;;14.58;81.86;101557.50;5041232;28;20015;-53
2022/10/30 03:33:19;;;;;;;17.13;8.85;;;;;;;14.53;82.14;101559.66;5050361;28;20029;-54
2022/10/30 03:35:44;;;;;;;15.23;8.85;;;;;;;14.45;82.21;101552.09;5051008;28;20033;-52
2022/10/30 03:38:11;;;;;;;19.25;8.75;;;;;;;14.49;82.40;101556.28;5051375;28;20044;-53
2022/10/30 03:40:37;;;;;;;16.95;8.52;;;;;;;14.56;82.08;101559.44;5051134;28;20484;-52
2022/10/30 03:43:03;;;;;;;14.90;8.13;;;;;;;14.52;81.97;101540.03;5052397;28;20067;-54
2022/10/30 03:45:32;;;;;;;18.27;8.38;;;;;;;14.62;82.19;101563.50;5047621;28;20061;-54
2022/10/30 03:47:59;;;;;;;;;;;;;;;14.70;80.81;101569.19;5043761;28;20635;-53
2022/10/30 03:50:24;;;;;;;19.40;9.15;;;;;;;14.52;82.22;101574.84;5044837;28;19912;-52
2022/10/30 03:52:53;;;;;;;18.45;9.30;;;;;;;14.51;82.88;101575.81;5033572;28;20053;-53
2022/10/30 03:55:18;;;;;;;18.48;9.02;;;;;;;14.46;82.54;101571.69;5045284;28;20037;-54
2022/10/30 03:57:44;;;;;;;20.40;9.48;;;;;;;14.50;82.81;101566.03;5040144;28;20041;-53
2022/10/30 04:00:12;;;;;;;18.88;9.73;;;;;;;14.40;82.83;101569.44;5045486;28;20029;-53
2022/10/30 04:02:38;;;;;;;16.15;8.50;;;;;;;14.41;83.22;101576.50;5038440;28;20037;-53
2022/10/30 04:05:04;;;;;;;18.48;8.60;;;;;;;14.43;82.94;101572.75;5017282;28;20120;-52
2022/10/30 04:07:32;;;;;;;20.67;8.82;;;;;;;14.42;82.88;101572.88;5040998;28;20055;-52
2022/10/30 04:09:57;;;;;;;22.10;9.40;;;;;;;14.41;82.92;101581.84;5050434;28;20035;-53
2022/10/30 04:12:25;;;;;;;22.73;9.55;;;;;;;14.40;83.02;101589.03;5032055;28;20037;-53
2022/10/30 04:14:52;;;;;;;18.30;8.82;;;;;;;14.42;82.87;101580.91;5038052;28;20550;-53
2022/10/30 04:17:18;;;;;;;18.58;8.73;;;;;;;14.24;83.41;101567.78;5045277;28;20131;-53
2022/10/30 04:19:43;;;;;;;16.88;9.13;;;;;;;14.29;83.05;101576.38;5041872;28;20551;-53
2022/10/30 04:22:08;;;;;;;22.52;9.25;;;;;;;14.35;83.26;101575.09;5038771;28;20449;-54
2022/10/30 04:24:34;;;;;;;16.85;9.07;;;;;;;14.26;83.64;101570.34;5032720;28;20465;-53
2022/10/30 04:26:59;;;;;;;15.57;8.80;;;;;;;14.27;83.66;101578.28;5047882;28;20067;-51
2022/10/30 04:29:24;;;;;;;18.52;8.75;;;;;;;14.14;84.17;101580.06;5032016;28;20473;-54
2022/10/30 04:31:50;;;;;;;16.58;9.15;;;;;;;14.18;84.23;101573.56;5037300;28;20029;-52
2022/10/30 04:34:15;;;;;;;18.35;8.15;;;;;;;14.19;83.87;101572.59;5042010;28;20029;-53
2022/10/30 04:36:40;;;;;;;19.40;8.68;;;;;;;14.15;84.09;101571.09;5035756;28;20071;-54
2022/10/30 04:39:06;;;;;;;18.15;8.35;;;;;;;14.19;84.14;101569.91;5045369;28;20476;-53
2022/10/30 04:41:32;;;;;;;17.52;8.65;;;;;;;14.14;84.56;101564.00;5047502;28;20037;-54
2022/10/30 04:43:57;;;;;;;23.55;9.18;;;;;;;14.11;84.63;101558.84;5051600;28;20108;-54
2022/10/30 04:46:25;;;;;;;21.55;9.57;;;;;;;14.12;84.62;101559.72;5028662;28;20021;-51
2022/10/30 04:48:56;;;;;;;16.92;9.07;;;;;;;14.15;84.56;101555.03;5031383;28;20029;-53
2022/10/30 04:51:24;;;;;;;15.20;8.85;;;;;;;14.12;84.66;101546.34;5045916;28;20082;-50
2022/10/30 04:53:53;;;;;;;20.75;9.75;;;;;;;14.09;84.80;101539.41;5050090;28;20029;-52
2022/10/30 04:56:20;;;;;;;18.52;9.18;;;;;;;13.98;85.17;101537.44;5036819;28;20022;-54
2022/10/30 04:58:46;;;;;;;18.88;9.50;;;;;;;14.02;85.37;101546.94;5042163;28;20048;-54
2022/10/30 05:01:11;;;;;;;17.08;8.82;;;;;;;14.13;85.30;101540.91;5049433;28;20036;-53
2022/10/30 05:03:39;;;;;;;21.52;9.80;;;;;;;14.10;85.35;101546.44;5034747;28;20029;-54
2022/10/30 05:06:15;;;;;;;19.92;9.68;;;;;;;14.00;85.46;101546.22;5026152;28;20025;-54
2022/10/30 05:08:43;;;;;;;16.95;9.48;;;;;;;14.10;85.34;101543.78;5041097;28;20039;-53
2022/10/30 05:11:08;;;;;;;20.90;9.23;;;;;;;14.00;85.42;101548.00;5048916;28;20028;-54
2022/10/30 05:13:36;;;;;;;17.48;9.55;;;;;;;13.94;85.56;101554.66;5048898;28;20119;-53
2022/10/30 05:16:02;;;;;;;21.02;9.60;;;;;;;14.03;85.52;101540.66;5047578;28;20045;-53
2022/10/30 05:18:27;;;;;;;20.83;10.50;;;;;;;13.97;85.47;101533.03;5046342;28;20400;-53
2022/10/30 05:20:55;;;;;;;19.33;9.57;;;;;;;14.05;85.61;101540.53;5028300;28;20377;-54
2022/10/30 05:23:21;;;;;;;17.13;8.15;;;;;;;13.97;85.37;101551.78;5036521;28;20112;-53
2022/10/30 05:25:47;;;;;;;16.10;8.95;;;;;;;13.91;85.61;101546.78;5029211;28;20026;-53
2022/10/30 05:28:12;;;;;;;20.15;9.48;;;;;;;13.92;85.57;101547.69;5041651;28;20033;-53
2022/10/30 05:30:37;;;;;;;16.58;8.98;;;;;;;13.95;85.30;101553.69;5028454;28;20409;-53
2022/10/30 05:33:06;;;;;;;16.48;8.52;;;;;;;13.79;85.55;101552.94;5035049;28;20385;-53
2022/10/30 05:35:33;;;;;;;21.17;8.82;;;;;;;13.80;85.48;101562.72;5040813;28;20037;-54
2022/10/30 05:38:00;;;;;;;16.92;9.70;;;;;;;13.77;85.63;101570.94;5047674;28;20025;-53
2022/10/30 05:40:26;;;;;;;16.20;9.23;;;;;;;13.66;85.56;101550.22;5046597;28;20034;-53
2022/10/30 05:42:54;;;;;;;17.42;9.27;;;;;;;13.62;85.41;101546.06;5035136;28;20146;-54
2022/10/30 05:45:20;;;;;;;14.90;8.77;;;;;;;13.69;85.37;101560.72;5033087;28;20057;-54
2022/10/30 05:47:58;;;;;;;17.05;9.00;;;;;;;13.62;85.68;101557.59;5029094;28;20034;-53
2022/10/30 05:50:25;;;;;;;17.90;8.75;;;;;;;13.52;85.40;101553.78;5039871;28;20032;-52
2022/10/30 05:53:02;;;;;;;17.02;8.82;;;;;;;13.57;85.53;101548.16;5037160;28;20410;-53
2022/10/30 05:55:28;;;;;;;15.15;8.75;;;;;;;13.53;85.75;101549.28;5030160;28;20029;-54
2022/10/30 05:57:58;;;;;;;14.75;8.43;;;;;;;13.60;85.17;101556.84;5029347;28;20036;-54
2022/10/30 06:00:26;;;;;;;16.33;8.98;;;;;;;13.44;85.84;101552.56;5034911;28;20026;-53
2022/10/30 06:02:51;;;;;;;24.58;9.10;;;;;;;13.35;85.27;101549.53;5035987;28;20032;-53
2022/10/30 06:05:17;;;;;;;12.02;8.73;;;;;;;13.38;84.82;101554.69;5041177;28;20037;-54
2022/10/30 06:07:43;;;;;;;17.05;9.20;;;;;;;13.27;85.25;101551.84;5046931;28;20032;-52
2022/10/30 06:10:08;;;;;;;19.85;8.52;;;;;;;13.36;85.07;101555.75;5051370;28;20120;-53
2022/10/30 06:12:34;;;;;;;16.38;8.95;;;;;;;13.26;85.14;101555.44;5049722;28;20075;-53
2022/10/30 06:14:59;;;;;;;13.55;9.07;;;;;;;13.12;85.19;101544.75;5034216;28;20510;-53
2022/10/30 06:17:24;;;;;;;19.85;9.25;;;;;;;13.17;85.51;101553.31;5033463;28;20069;-54
2022/10/30 06:19:50;;;;;;;15.45;9.27;;;;;;;13.09;85.85;101556.47;5036306;28;20040;-53
2022/10/30 06:22:15;;;;;;;17.58;8.43;;;;;;;13.02;85.46;101555.13;5041993;28;20548;-54
2022/10/30 06:24:41;;;;;;;15.40;8.98;;;;;;;13.06;84.91;101548.66;5052526;28;20094;-53
2022/10/30 06:27:07;;;;;;;16.65;9.82;;;;;;;13.06;85.61;101543.31;5036827;28;20029;-54
2022/10/30 06:29:32;;;;;;;15.88;9.00;;;;;;;13.04;85.89;101549.72;5035078;28;20400;-54
2022/10/30 06:31:57;;;;;;;18.60;9.40;;;;;;;13.08;85.51;101546.72;5042295;28;20091;-53
2022/10/30 06:34:23;;;;;;;19.80;9.50;;;;;;;13.12;85.21;101552.75;5042373;28;20078;-54
2022/10/30 06:36:49;;;;;;;21.45;9.20;;;;;;;12.98;85.55;101550.94;5045204;28;20028;-53
2022/10/30 06:39:14;;;;;;;15.43;9.02;;;;;;;13.01;85.49;101548.09;5034668;28;20041;-53
2022/10/30 06:41:40;;;;;;;18.08;9.27;;;;;;;12.90;85.78;101538.06;5049693;28;20040;-52
2022/10/30 06:44:05;;;;;;;14.85;8.70;;;;;;;13.02;85.30;101547.13;5035358;28;20112;-53
2022/10/30 06:46:31;;;;;;;17.45;8.30;;;;;;;12.98;85.26;101550.94;5032538;28;20029;-53
2022/10/30 06:48:56;;;;;;;16.70;8.82;;;;;;;12.99;85.16;101552.66;5049948;28;20101;-52
2022/10/30 06:51:21;;;;;;;12.10;8.07;;;;;;;12.98;85.03;101547.41;5041246;28;20033;-53
2022/10/30 06:53:47;;;;;;;13.88;9.38;;;;;;;12.98;85.00;101547.41;5031709;28;20057;-52
2022/10/30 06:56:14;;;;;;;20.52;8.98;;;;;;;13.07;85.00;101542.34;5046698;28;20060;-54
2022/10/30 06:58:43;;;;;;;17.25;9.15;;;;;;;12.91;85.93;101537.13;5033643;28;20104;-54
2022/10/30 07:01:10;;;;;;;17.45;9.23;;;;;;;12.90;86.25;101538.06;5035282;28;20089;-53
2022/10/30 07:03:36;;;;;;;19.60;8.85;;;;;;;12.95;86.26;101527.97;5035147;28;20770;-52
2022/10/30 07:06:02;;;;;;;18.45;8.85;;;;;;;13.00;86.34;101521.47;5035201;28;20120;-53
2022/10/30 07:08:27;;;;;;;15.57;8.68;;;;;;;12.93;86.10;101524.50;5031832;28;20072;-53
2022/10/30 07:10:55;;;;;;;19.42;9.07;;;;;;;13.04;86.06;101526.53;5031981;28;20056;-53
2022/10/30 07:13:21;;;;;;;19.20;8.73;;;;;;;13.10;85.95;101531.47;5033334;28;20049;-53
2022/10/30 07:15:46;;;;;;;18.25;9.00;;;;;;;13.08;86.11;101529.84;5038928;28;20065;-54
2022/10/30 07:18:11;;;;;;;15.13;8.95;;;;;;;13.04;86.41;101531.88;5043968;28;20112;-54
2022/10/30 07:20:37;;;;;;;15.73;8.75;;;;;;;13.11;86.29;101535.00;5045438;28;20546;-54
2022/10/30 07:23:03;;;;;;;18.13;9.15;;;;;;;13.17;86.34;101532.78;5035184;28;20061;-54
2022/10/30 07:25:28;;;;;;;16.73;9.32;;;;;;;13.14;86.74;101532.13;5037344;28;20537;-53
2022/10/30 07:27:55;;;;;;;17.20;9.25;;;;;;;13.05;86.85;101528.22;5032613;28;20087;-52
2022/10/30 07:30:23;;;;;;;17.73;9.32;;;;;;;13.16;86.99;101533.75;5032573;28;20076;-54
2022/10/30 07:33:03;;;;;;;17.13;9.48;;;;;;;13.17;87.25;101531.94;5042183;28;20210;-53
2022/10/30 07:35:30;;;;;;;14.80;8.90;;;;;;;13.16;87.61;101539.09;5052443;28;20099;-53
2022/10/30 07:38:01;;;;;;;16.63;9.43;;;;;;;13.21;88.00;101549.50;5051007;28;20531;-53
2022/10/30 07:40:27;;;;;;;14.25;9.27;;;;;;;13.24;88.06;101543.97;5049057;28;20476;-53
2022/10/30 07:42:56;;;;;;;18.58;10.18;;;;;;;13.19;88.58;101538.91;5042406;28;20055;-53
2022/10/30 07:45:24;;;;;;;15.98;8.75;;;;;;;13.31;87.89;101537.31;5034310;28;20082;-54
2022/10/30 07:47:50;;;;;;;15.50;8.63;;;;;;;13.27;88.76;101540.28;5037106;28;20029;-54
2022/10/30 07:50:18;;;;;;;16.83;9.55;;;;;;;13.30;88.84;101532.94;5032526;28;20426;-52
2022/10/30 07:52:43;;;;;;;21.38;9.57;;;;;;;13.42;88.86;101535.78;5032754;28;20049;-53
2022/10/30 07:55:09;;;;;;;17.48;9.32;;;;;;;13.36;89.25;101537.03;5031861;28;20564;-53
2022/10/30 07:57:38;;;;;;;17.38;9.25;;;;;;;13.39;89.48;101537.69;5041202;28;20035;-53
2022/10/30 08:00:06;;;;;;;18.27;9.25;;;;;;;13.38;89.67;101538.66;5040043;28;20134;-53
2022/10/30 08:02:31;;;;;;;17.13;10.00;;;;;;;13.47;89.76;101539.00;5050222;28;20084;-52
2022/10/30 08:04:57;;;;;;;16.20;9.88;;;;;;;13.54;89.76;101538.53;5051700;28;20086;-53
2022/10/30 08:07:28;;;;;;;18.95;9.70;;;;;;;13.58;90.00;101541.84;5046857;28;20391;-53
2022/10/30 08:09:53;;;;;;;20.08;10.25;;;;;;;13.60;90.09;101539.94;5035928;28;20082;-53
2022/10/30 08:12:19;;;;;;;16.88;9.55;;;;;;;13.66;90.00;101528.84;5045115;28;20037;-53
2022/10/30 08:14:44;;;;;;;16.70;9.45;;;;;;;13.75;89.91;101533.59;5050472;28;20035;-54
2022/10/30 08:17:09;;;;;;;21.88;9.50;;;;;;;13.72;90.34;101523.09;5050613;28;20048;-53
2022/10/30 08:19:38;;;;;;;13.70;8.88;;;;;;;13.78;90.37;101524.50;5040888;28;20043;-54
2022/10/30 08:22:03;;;;;;;17.50;9.40;;;;;;;13.86;90.33;101517.69;5033585;28;20037;-51
2022/10/30 08:24:31;;;;;;;15.43;9.60;;;;;;;13.90;90.66;101528.19;5071235;28;20095;-52
2022/10/30 08:26:57;;;;;;;21.08;10.77;;;;;;;14.05;88.96;101537.88;5054387;28;20024;-50
2022/10/30 08:29:25;;;;;;;18.13;9.68;;;;;;;14.17;88.81;101545.06;5071561;28;20075;-52
2022/10/30 08:31:51;;;;;;;18.33;9.70;;;;;;;14.25;88.46;101545.41;5058913;28;20033;-54
2022/10/30 08:34:18;;;;;;;20.33;9.98;;;;;;;14.34;87.54;101551.97;5050365;28;20032;-51
2022/10/30 08:36:46;;;;;;;18.67;9.55;;;;;;;14.39;87.26;101539.13;5051557;28;20079;-52
2022/10/30 08:39:11;;;;;;;22.80;9.63;;;;;;;14.48;87.27;101526.94;5051486;28;20036;-50
2022/10/30 08:41:37;;;;;;;14.07;9.35;;;;;;;14.52;87.11;101532.00;5029385;28;20106;-53
2022/10/30 08:44:03;;;;;;;17.77;9.43;;;;;;;14.59;86.67;101527.09;5031547;28;20500;-53
2022/10/30 08:46:28;;;;;;;16.90;9.23;;;;;;;14.65;86.17;101531.19;5030269;28;20030;-50
2022/10/30 08:48:54;;;;;;;16.88;9.32;;;;;;;14.70;85.85;101535.22;5031667;28;20032;-53
2022/10/30 08:51:20;;;;;;;18.13;8.88;;;;;;;14.79;86.01;101540.91;5030385;28;20044;-51
2022/10/30 08:53:51;;;;;;;16.48;8.60;;;;;;;14.86;84.69;101528.81;5051291;28;20119;-53
2022/10/30 08:56:17;;;;;;;21.58;9.43;;;;;;;14.97;85.12;101536.94;5039508;28;20034;-53
2022/10/30 08:58:44;;;;;;;16.70;8.80;;;;;;;15.09;84.63;101540.56;5031593;28;20026;-51
2022/10/30 09:01:12;;;;;;;16.55;8.38;;;;;;;15.17;83.33;101538.22;5031614;28;20396;-52
2022/10/30 09:03:38;;;;;;;14.98;8.75;;;;;;;15.29;84.04;101537.31;5035017;28;20021;-50
2022/10/30 09:06:04;;;;;;;15.75;8.70;;;;;;;15.40;83.17;101537.41;5051181;28;20112;-53
2022/10/30 09:08:29;;;;;;;18.67;8.73;;;;;;;15.54;81.71;101536.41;5051042;28;20090;-54
2022/10/30 09:10:55;;;;;;;17.77;7.88;;;;;;;15.72;82.29;101526.19;5049982;28;20113;-54
2022/10/30 09:13:21;;;;;;;14.75;8.18;;;;;;;15.85;80.75;101518.97;5051492;28;20197;-53
2022/10/30 09:15:49;;;;;;;19.48;9.27;;;;;;;16.01;80.57;101517.81;5033191;28;20477;-52
2022/10/30 09:18:19;;;;;;;17.05;8.40;;;;;;;16.16;79.99;101516.66;5031342;28;20025;-55
2022/10/30 09:20:48;;;;;;;14.13;8.50;;;;;;;16.33;80.81;101508.16;5029806;28;20025;-53
2022/10/30 09:23:13;;;;;;;16.50;7.97;;;;;;;16.49;78.39;101510.50;5030436;28;20056;-54
2022/10/30 09:25:39;;;;;;;17.98;7.88;;;;;;;16.55;77.95;101514.53;5042991;28;20484;-54
2022/10/30 09:28:07;;;;;;;20.08;8.40;;;;;;;16.61;77.58;101521.28;5051347;28;20036;-52
2022/10/30 09:30:32;;;;;;;14.50;7.25;;;;;;;16.67;77.79;101520.78;5047681;28;20111;-52
2022/10/30 09:33:03;;;;;;;16.50;7.60;;;;;;;16.75;77.43;101518.38;5050965;28;20124;-53
2022/10/30 09:35:29;;;;;;;15.35;7.80;;;;;;;16.74;76.66;101504.09;5053191;28;20115;-54
2022/10/30 09:37:56;;;;;;;18.33;8.23;;;;;;;16.84;77.19;101501.56;5055075;28;20049;-54
2022/10/30 09:40:33;;;;;;;21.92;7.93;;;;;;;16.95;78.14;101514.16;5051237;28;20064;-53
2022/10/30 09:43:13;;;;;;;16.27;8.18;;;;;;;17.01;76.67;101519.88;5055004;28;20031;-54
2022/10/30 09:45:41;;;;;;;16.05;7.80;;;;;;;17.07;75.04;101528.44;5053394;28;20151;-52
2022/10/30 09:48:19;;;;;;;15.30;7.57;;;;;;;17.02;77.44;101540.41;5054924;28;20475;-53
2022/10/30 09:51:08;;;;;;;22.67;8.73;;;;;;;17.00;76.16;101549.56;5052819;28;20040;-53
2022/10/30 09:53:34;;;;;;;14.68;8.20;;;;;;;17.03;75.88;101557.41;5053666;28;20485;-52
2022/10/30 09:56:16;;;;;;;18.70;8.82;;;;;;;17.03;77.45;101555.56;5054057;28;20029;-53
2022/10/30 09:58:59;;;;;;;16.40;7.68;;;;;;;17.07;79.28;101558.88;5054702;28;20020;-53
2022/10/30 10:01:42;;;;;;;15.20;7.43;;;;;;;17.01;76.14;101557.50;5053007;28;20507;-53
2022/10/30 10:04:19;;;;;;;16.17;8.02;;;;;;;16.97;77.86;101552.47;5054929;28;20029;-53
2022/10/30 10:06:50;;;;;;;15.57;7.80;;;;;;;16.97;76.74;101558.75;5037020;28;20029;-54
2022/10/30 10:09:20;;;;;;;18.77;7.68;;;;;;;17.15;75.59;101548.38;5053897;28;20087;-52
2022/10/30 10:11:53;;;;;;;16.27;7.10;;;;;;;17.48;75.41;101547.47;5034323;28;20034;-52
2022/10/30 10:14:41;;;;;;;14.65;7.90;;;;;;;17.74;74.93;101543.66;5042828;28;20029;-53
2022/10/30 10:17:12;;;;;;;19.33;8.18;;;;;;;18.02;72.91;101544.94;5054075;28;20049;-53
2022/10/30 10:19:48;;;;;;;17.55;7.30;;;;;;;18.25;73.04;101541.16;5053261;28;20108;-53
2022/10/30 10:22:27;;;;;;;17.45;7.53;;;;;;;18.43;75.40;101546.81;5054419;28;20024;-53
2022/10/30 10:24:56;;;;;;;18.35;7.35;;;;;;;18.75;69.99;101529.75;5051867;28;20074;-53
2022/10/30 10:27:40;;;;;;;15.80;7.07;;;;;;;18.98;69.29;101539.41;5052395;28;20033;-54
2022/10/30 10:30:11;;;;;;;16.73;6.90;;;;;;;19.14;67.69;101524.56;5053966;28;20037;-53
2022/10/30 10:32:46;;;;;;;13.63;6.80;;;;;;;19.37;67.97;101536.00;5054237;28;20029;-54
2022/10/30 10:35:50;;;;;;;21.65;6.88;;;;;;;19.66;67.75;101531.56;5045261;28;20021;-53
2022/10/30 10:38:39;;;;;;;15.63;6.93;;;;;;;19.90;67.68;101528.47;5041629;28;20029;-54
2022/10/30 10:41:18;;;;;;;20.25;6.43;;;;;;;20.08;67.07;101525.06;5047518;28;20048;-54
2022/10/30 10:44:18;;;;;;;19.30;6.65;;;;;;;20.23;65.13;101517.38;5053879;28;20021;-54
2022/10/30 10:47:16;;;;;;;14.43;5.75;;;;;;;20.19;66.82;101514.97;5053594;28;20033;-54
2022/10/30 10:49:53;;;;;;;11.85;6.15;;;;;;;20.45;65.18;101518.94;5028321;28;20033;-54
2022/10/30 10:52:29;;;;;;;18.50;6.28;;;;;;;20.86;61.75;101525.84;5053449;28;20025;-54
2022/10/30 10:55:03;;;;;;;20.95;6.22;;;;;;;21.02;59.94;101533.31;5045099;28;20037;-53
2022/10/30 10:57:33;;;;;;;16.25;5.88;;;;;;;21.17;59.57;101534.53;5032408;28;20037;-54
2022/10/30 11:00:12;;;;;;;20.83;6.60;;;;;;;21.18;60.49;101538.97;5039404;28;20108;-54
2022/10/30 11:02:43;;;;;;;14.10;6.57;;;;;;;21.16;58.54;101543.66;5053907;28;20029;-54
2022/10/30 11:05:23;;;;;;;13.18;5.80;;;;;;;21.38;59.34;101542.44;5053353;28;20064;-54
2022/10/30 11:07:49;;;;;;;14.15;5.70;;;;;;;21.67;58.02;101526.03;5051744;28;20540;-54
2022/10/30 11:10:18;;;;;;;17.92;6.18;;;;;;;21.90;56.84;101536.41;5048174;28;20439;-54
2022/10/30 11:12:43;;;;;;;15.35;5.65;;;;;;;22.18;55.79;101527.25;5041438;28;20468;-54
2022/10/30 11:15:17;;;;;;;18.98;6.30;;;;;;;22.29;56.76;101526.13;5052112;28;20071;-55
2022/10/30 11:17:58;;;;;;;12.60;5.82;;;;;;;22.84;56.51;101517.72;5052995;28;20029;-54
2022/10/30 11:20:50;;;;;;;19.83;5.85;;;;;;;22.88;53.64;101516.41;5053184;28;20078;-54
2022/10/30 11:23:44;;;;;;;18.40;6.13;;;;;;;22.94;55.93;101511.31;5041024;28;20047;-54
2022/10/30 11:26:16;;;;;;;15.27;5.82;;;;;;;23.01;53.60;101507.84;5052625;28;20040;-54